Shelton, NE (68876)

10:41 AM CDT on September 28, 2016 (GMT -0500)
GSF 25E | | Change Station

Elev 2018 ft 40.81 °N, 98.73 °W | Updated 12 minutes ago

Clear
Clear
61.0 °F
Feels Like 61.0 °F
N
7.0
Wind Variable Wind from NE
Gusts 13.0 mph

Today
High -- | Low -- °F
--% Chance of Precip.
Yesterday
High -- | Low -- °F
Precip. -- in
Pressure 30.21 in
Visibility 10.0 miles
Clouds Clear
Dew Point 41 °F
Humidity 49%
Rainfall 0.00 in
Snow Depth Not available.
7:28 AM 7:21 PM
Waning Crescent, 5% visible
METAR KEAR 281535Z AUTO 03013KT 10SM CLR 17/01 A3021 RMK AO1
Pressure 30.21 in
Visibility 10.0 miles
Clouds Clear
Dew Point 41 °F
Humidity 49%
Rainfall 0.00 in
Snow Depth Not available.
7:28 AM 7:21 PM
Waning Crescent, 5% visible
METAR KEAR 281535Z AUTO 03013KT 10SM CLR 17/01 A3021 RMK AO1

10-Day Weather Forecast

Almanac

Astronomy

Sep. 28, 2016 Rise Set
Actual Time
Civil Twilight
Nautical Twilight
Astronomical Twilight
Moon
Length of Visible Light
Length of Day
Tomorrow will be .
, % of the Moon is Illuminated

Today's Extremes

State Highs State Lows

Community

WunderPhotos

Upload Photos

1,942,268 photos uploaded!

WunderBlog® & News

Nearby

Air Quality

  Air Quality AQ Index Pollutant
Not available.

Snow Depth

Station Depth Elevation

Earthquake Activity

City Distance Mag. Time & Date
Minimum magnitude displayed is 2.5.

Coastal Water Temperatures

Place Temperature

Stations

Nearby Weather Stations

Station Location Temp. Windchill Dew Point Humidity Wind Precip. Elev Updated Type
                   

Watches & Warnings

There are currently no watches in effect.